Lake Placid, NY (12946)

7:24 PM EDT on September 04, 2015 (GMT -0400)
Intervale Lowlands | | Change Station
CLOSE
Current Station
Personal Weather Station
Location: Lake Placid, NY
Elevation: 1680 ft
Nearby Weather Stations

Elev 1680 ft 44.27 °N, 73.95 °W | Updated 57 seconds ago

Clear
Clear
65.2 °F
Feels Like 65.2 °F
N
0.0
Wind Variable Wind from NE
Gusts 2.0 mph

Today
High -- | Low -- °F
--% Chance of Precip.
Yesterday
High -- | Low -- °F
Precip. -- in
6:22 AM 7:27 PM
Waning Gibbous, 55% visible
Pressure 30.22 in
Visibility 10.0 miles
Clouds Clear
Dew Point 63 °F
Humidity 95%
Rainfall 0.00 in
Snow Depth Not available.
UV 0 out of 12
Pollen 7.70 out of 12
Air Quality Not available.
Flu Activity Not available.
METAR KSLK 042251Z AUTO 05008KT 10SM CLR 22/11 A3021 RMK AO2 SLP231 T02170111
Pressure 30.22 in
Visibility 10.0 miles
Clouds Clear
Dew Point 63 °F
Humidity 95%
Rainfall 0.00 in
Snow Depth Not available.
UV 0 out of 12
Pollen 7.70 out of 12
Air Quality Not available.
Flu Activity Not available.
METAR KSLK 042251Z AUTO 05008KT 10SM CLR 22/11 A3021 RMK AO2 SLP231 T02170111

10-Day Weather Forecast

×

Almanac

Astronomy

Sep. 04, 2015 Rise Set
Actual Time
Civil Twilight
Nautical Twilight
Astronomical Twilight
Moon
Length of Visible Light
Length of Day
Tomorrow will be .
, % of the Moon is Illuminated

Today's Extremes

State Highs State Lows

Community

WunderPhotos

Upload Photos

1,852,332 photos uploaded!

WunderBlogs® & News

Nearby

Air Quality

  Air Quality AQ Index Pollutant
Not available.

Snow Depth

Station Depth Elevation

Earthquake Activity

City Distance Mag. Time & Date
Minimum magnitude displayed is 2.5.

Coastal Water Temperatures

Place Temperature

Stations

Nearby Weather Stations

Station Location Temp. Windchill Dew Point Humidity Wind Precip. Elev Updated Type